sensor_id;sensor_type;location;lat;lon;timestamp;P1;durP1;ratioP1;P2;durP2;ratioP2
71867;SDS011;59738;48.324;14.230;2023-04-06T00:02:04;2.50;;;2.17;;
71867;SDS011;59738;48.324;14.230;2023-04-06T00:04:34;4.10;;;2.90;;
71867;SDS011;59738;48.324;14.230;2023-04-06T00:07:04;3.28;;;2.30;;
71867;SDS011;59738;48.324;14.230;2023-04-06T00:09:31;4.93;;;2.40;;
71867;SDS011;59738;48.324;14.230;2023-04-06T00:11:59;3.20;;;2.60;;
71867;SDS011;59738;48.324;14.230;2023-04-06T00:14:28;5.63;;;2.83;;
71867;SDS011;59738;48.324;14.230;2023-04-06T00:16:56;3.30;;;2.42;;
71867;SDS011;59738;48.324;14.230;2023-04-06T00:19:23;5.68;;;2.78;;
71867;SDS011;59738;48.324;14.230;2023-04-06T00:21:52;4.43;;;2.40;;
71867;SDS011;59738;48.324;14.230;2023-04-06T00:24:19;4.43;;;2.43;;
71867;SDS011;59738;48.324;14.230;2023-04-06T00:26:47;3.53;;;2.25;;
71867;SDS011;59738;48.324;14.230;2023-04-06T00:29:14;4.47;;;2.45;;
71867;SDS011;59738;48.324;14.230;2023-04-06T00:31:42;4.97;;;2.63;;
71867;SDS011;59738;48.324;14.230;2023-04-06T00:34:09;2.42;;;2.20;;
71867;SDS011;59738;48.324;14.230;2023-04-06T00:36:36;5.87;;;3.20;;
71867;SDS011;59738;48.324;14.230;2023-04-06T00:39:05;7.32;;;3.47;;
71867;SDS011;59738;48.324;14.230;2023-04-06T00:41:34;5.63;;;2.90;;
71867;SDS011;59738;48.324;14.230;2023-04-06T00:44:02;6.55;;;3.88;;
71867;SDS011;59738;48.324;14.230;2023-04-06T00:46:29;6.38;;;3.25;;
71867;SDS011;59738;48.324;14.230;2023-04-06T00:48:57;3.40;;;2.53;;
71867;SDS011;59738;48.324;14.230;2023-04-06T00:51:24;4.20;;;2.53;;
71867;SDS011;59738;48.324;14.230;2023-04-06T00:53:52;4.50;;;2.55;;
71867;SDS011;59738;48.324;14.230;2023-04-06T00:56:22;3.15;;;2.42;;
71867;SDS011;59738;48.324;14.230;2023-04-06T00:58:54;4.18;;;2.50;;
71867;SDS011;59738;48.324;14.230;2023-04-06T01:01:25;3.97;;;2.50;;
71867;SDS011;59738;48.324;14.230;2023-04-06T01:03:55;3.28;;;2.35;;
71867;SDS011;59738;48.324;14.230;2023-04-06T01:06:23;3.83;;;2.63;;
71867;SDS011;59738;48.324;14.230;2023-04-06T01:08:57;3.50;;;2.58;;
71867;SDS011;59738;48.324;14.230;2023-04-06T01:11:27;6.10;;;2.30;;
71867;SDS011;59738;48.324;14.230;2023-04-06T01:13:56;4.30;;;2.70;;
71867;SDS011;59738;48.324;14.230;2023-04-06T01:16:32;4.25;;;2.47;;
71867;SDS011;59738;48.324;14.230;2023-04-06T01:19:17;4.60;;;2.80;;
71867;SDS011;59738;48.324;14.230;2023-04-06T01:21:51;6.38;;;2.60;;
71867;SDS011;59738;48.324;14.230;2023-04-06T01:24:43;3.28;;;2.47;;
71867;SDS011;59738;48.324;14.230;2023-04-06T01:27:16;2.33;;;2.00;;
71867;SDS011;59738;48.324;14.230;2023-04-06T01:30:11;2.75;;;2.30;;
71867;SDS011;59738;48.324;14.230;2023-04-06T01:33:08;4.03;;;2.50;;
71867;SDS011;59738;48.324;14.230;2023-04-06T01:35:55;2.83;;;2.30;;
71867;SDS011;59738;48.324;14.230;2023-04-06T01:38:22;2.55;;;2.35;;
71867;SDS011;59738;48.324;14.230;2023-04-06T01:40:52;3.40;;;2.67;;
71867;SDS011;59738;48.324;14.230;2023-04-06T01:43:22;3.22;;;2.42;;
71867;SDS011;59738;48.324;14.230;2023-04-06T01:46:00;3.20;;;2.58;;
71867;SDS011;59738;48.324;14.230;2023-04-06T01:48:32;5.25;;;2.67;;
71867;SDS011;59738;48.324;14.230;2023-04-06T01:51:06;3.85;;;2.10;;
71867;SDS011;59738;48.324;14.230;2023-04-06T01:53:37;5.03;;;2.53;;
71867;SDS011;59738;48.324;14.230;2023-04-06T01:56:08;4.43;;;2.78;;
71867;SDS011;59738;48.324;14.230;2023-04-06T01:58:45;3.38;;;2.85;;
71867;SDS011;59738;48.324;14.230;2023-04-06T02:01:15;5.50;;;2.35;;
71867;SDS011;59738;48.324;14.230;2023-04-06T02:03:51;2.22;;;2.00;;
71867;SDS011;59738;48.324;14.230;2023-04-06T02:06:19;3.90;;;2.30;;
71867;SDS011;59738;48.324;14.230;2023-04-06T02:08:47;6.85;;;3.10;;
71867;SDS011;59738;48.324;14.230;2023-04-06T02:11:16;4.72;;;2.72;;
71867;SDS011;59738;48.324;14.230;2023-04-06T02:13:47;3.70;;;2.60;;
71867;SDS011;59738;48.324;14.230;2023-04-06T02:16:16;4.90;;;2.80;;
71867;SDS011;59738;48.324;14.230;2023-04-06T02:18:45;5.40;;;3.10;;
71867;SDS011;59738;48.324;14.230;2023-04-06T02:21:12;5.15;;;3.03;;
71867;SDS011;59738;48.324;14.230;2023-04-06T02:23:40;4.50;;;2.78;;
71867;SDS011;59738;48.324;14.230;2023-04-06T02:26:07;6.55;;;2.97;;
71867;SDS011;59738;48.324;14.230;2023-04-06T02:28:37;3.90;;;2.83;;
71867;SDS011;59738;48.324;14.230;2023-04-06T02:31:04;3.63;;;2.57;;
71867;SDS011;59738;48.324;14.230;2023-04-06T02:33:32;3.00;;;2.50;;
71867;SDS011;59738;48.324;14.230;2023-04-06T02:35:59;3.65;;;2.97;;
71867;SDS011;59738;48.324;14.230;2023-04-06T02:38:28;4.40;;;2.50;;
71867;SDS011;59738;48.324;14.230;2023-04-06T02:40:57;3.50;;;2.50;;
71867;SDS011;59738;48.324;14.230;2023-04-06T02:43:27;3.03;;;2.73;;
71867;SDS011;59738;48.324;14.230;2023-04-06T02:46:05;3.20;;;2.50;;
71867;SDS011;59738;48.324;14.230;2023-04-06T02:48:36;6.72;;;4.43;;
71867;SDS011;59738;48.324;14.230;2023-04-06T02:51:03;3.53;;;2.95;;
71867;SDS011;59738;48.324;14.230;2023-04-06T02:53:33;4.45;;;3.08;;
71867;SDS011;59738;48.324;14.230;2023-04-06T02:56:00;5.20;;;2.77;;
71867;SDS011;59738;48.324;14.230;2023-04-06T02:58:37;6.28;;;3.15;;
71867;SDS011;59738;48.324;14.230;2023-04-06T03:01:06;5.85;;;2.80;;
71867;SDS011;59738;48.324;14.230;2023-04-06T03:03:35;4.85;;;2.67;;
71867;SDS011;59738;48.324;14.230;2023-04-06T03:06:05;2.67;;;2.38;;
71867;SDS011;59738;48.324;14.230;2023-04-06T03:08:32;5.77;;;2.90;;
71867;SDS011;59738;48.324;14.230;2023-04-06T03:10:59;4.45;;;2.88;;
71867;SDS011;59738;48.324;14.230;2023-04-06T03:13:35;4.88;;;3.33;;
71867;SDS011;59738;48.324;14.230;2023-04-06T03:16:04;3.70;;;2.70;;
71867;SDS011;59738;48.324;14.230;2023-04-06T03:18:34;4.55;;;3.25;;
71867;SDS011;59738;48.324;14.230;2023-04-06T03:21:01;6.43;;;3.20;;
71867;SDS011;59738;48.324;14.230;2023-04-06T03:23:40;7.15;;;2.70;;
71867;SDS011;59738;48.324;14.230;2023-04-06T03:26:08;3.85;;;3.00;;
71867;SDS011;59738;48.324;14.230;2023-04-06T03:28:36;3.92;;;3.03;;
71867;SDS011;59738;48.324;14.230;2023-04-06T03:31:05;5.10;;;3.53;;
71867;SDS011;59738;48.324;14.230;2023-04-06T03:33:43;3.83;;;2.90;;
71867;SDS011;59738;48.324;14.230;2023-04-06T03:36:18;5.65;;;3.13;;
71867;SDS011;59738;48.324;14.230;2023-04-06T03:38:46;6.05;;;3.10;;
71867;SDS011;59738;48.324;14.230;2023-04-06T03:41:15;7.97;;;3.63;;
71867;SDS011;59738;48.324;14.230;2023-04-06T03:43:49;5.50;;;3.05;;
71867;SDS011;59738;48.324;14.230;2023-04-06T03:46:17;7.87;;;3.07;;
71867;SDS011;59738;48.324;14.230;2023-04-06T03:48:47;4.60;;;3.15;;
71867;SDS011;59738;48.324;14.230;2023-04-06T03:51:16;6.25;;;3.17;;
71867;SDS011;59738;48.324;14.230;2023-04-06T03:53:43;4.63;;;3.28;;
71867;SDS011;59738;48.324;14.230;2023-04-06T03:56:10;5.90;;;3.42;;
71867;SDS011;59738;48.324;14.230;2023-04-06T03:58:38;4.60;;;3.20;;
71867;SDS011;59738;48.324;14.230;2023-04-06T04:01:05;6.85;;;3.50;;
71867;SDS011;59738;48.324;14.230;2023-04-06T04:03:34;4.93;;;3.10;;
71867;SDS011;59738;48.324;14.230;2023-04-06T04:06:02;7.88;;;3.47;;
71867;SDS011;59738;48.324;14.230;2023-04-06T04:08:30;4.97;;;3.30;;
71867;SDS011;59738;48.324;14.230;2023-04-06T04:10:57;5.40;;;2.97;;
71867;SDS011;59738;48.324;14.230;2023-04-06T04:13:24;6.15;;;3.47;;
71867;SDS011;59738;48.324;14.230;2023-04-06T04:15:51;9.93;;;3.50;;
71867;SDS011;59738;48.324;14.230;2023-04-06T04:18:18;7.43;;;3.38;;
71867;SDS011;59738;48.324;14.230;2023-04-06T04:20:46;8.05;;;3.65;;
71867;SDS011;59738;48.324;14.230;2023-04-06T04:23:14;6.40;;;2.83;;
71867;SDS011;59738;48.324;14.230;2023-04-06T04:25:43;6.53;;;2.97;;
71867;SDS011;59738;48.324;14.230;2023-04-06T04:28:10;3.85;;;2.92;;
71867;SDS011;59738;48.324;14.230;2023-04-06T04:30:39;5.43;;;3.08;;
71867;SDS011;59738;48.324;14.230;2023-04-06T04:33:09;4.18;;;2.97;;
71867;SDS011;59738;48.324;14.230;2023-04-06T04:35:37;4.87;;;2.90;;
71867;SDS011;59738;48.324;14.230;2023-04-06T04:38:05;5.70;;;3.42;;
71867;SDS011;59738;48.324;14.230;2023-04-06T04:40:35;4.22;;;3.10;;
71867;SDS011;59738;48.324;14.230;2023-04-06T04:43:07;4.00;;;3.20;;
71867;SDS011;59738;48.324;14.230;2023-04-06T04:45:34;6.60;;;2.97;;
71867;SDS011;59738;48.324;14.230;2023-04-06T04:48:21;5.67;;;3.60;;
71867;SDS011;59738;48.324;14.230;2023-04-06T04:50:55;8.63;;;3.80;;
71867;SDS011;59738;48.324;14.230;2023-04-06T04:53:26;4.50;;;3.28;;
71867;SDS011;59738;48.324;14.230;2023-04-06T04:56:01;8.20;;;3.20;;
71867;SDS011;59738;48.324;14.230;2023-04-06T04:58:28;5.15;;;2.75;;
71867;SDS011;59738;48.324;14.230;2023-04-06T05:00:58;3.60;;;3.13;;
71867;SDS011;59738;48.324;14.230;2023-04-06T05:03:27;6.28;;;3.33;;
71867;SDS011;59738;48.324;14.230;2023-04-06T05:05:58;6.93;;;3.92;;
71867;SDS011;59738;48.324;14.230;2023-04-06T05:08:30;4.25;;;3.40;;
71867;SDS011;59738;48.324;14.230;2023-04-06T05:10:57;7.22;;;4.20;;
71867;SDS011;59738;48.324;14.230;2023-04-06T05:13:27;4.70;;;3.33;;
71867;SDS011;59738;48.324;14.230;2023-04-06T05:15:55;8.48;;;3.92;;
71867;SDS011;59738;48.324;14.230;2023-04-06T05:18:29;5.93;;;4.40;;
71867;SDS011;59738;48.324;14.230;2023-04-06T05:20:57;6.35;;;4.20;;
71867;SDS011;59738;48.324;14.230;2023-04-06T05:23:36;8.88;;;3.92;;
71867;SDS011;59738;48.324;14.230;2023-04-06T05:26:04;6.57;;;4.10;;
71867;SDS011;59738;48.324;14.230;2023-04-06T05:28:33;7.55;;;4.28;;
71867;SDS011;59738;48.324;14.230;2023-04-06T05:31:02;10.32;;;4.80;;
71867;SDS011;59738;48.324;14.230;2023-04-06T05:33:37;5.55;;;4.20;;
71867;SDS011;59738;48.324;14.230;2023-04-06T05:36:08;7.78;;;4.45;;
71867;SDS011;59738;48.324;14.230;2023-04-06T05:38:41;6.93;;;4.23;;
71867;SDS011;59738;48.324;14.230;2023-04-06T05:41:20;10.20;;;4.10;;
71867;SDS011;59738;48.324;14.230;2023-04-06T05:43:49;5.88;;;3.60;;
71867;SDS011;59738;48.324;14.230;2023-04-06T05:46:16;6.72;;;3.47;;
71867;SDS011;59738;48.324;14.230;2023-04-06T05:48:44;7.78;;;4.60;;
71867;SDS011;59738;48.324;14.230;2023-04-06T05:51:13;18.10;;;6.27;;
71867;SDS011;59738;48.324;14.230;2023-04-06T05:53:46;11.43;;;5.05;;
71867;SDS011;59738;48.324;14.230;2023-04-06T05:56:14;4.32;;;3.75;;
71867;SDS011;59738;48.324;14.230;2023-04-06T05:58:42;8.05;;;4.10;;
71867;SDS011;59738;48.324;14.230;2023-04-06T06:01:14;8.38;;;4.05;;
71867;SDS011;59738;48.324;14.230;2023-04-06T06:03:45;9.93;;;5.07;;
71867;SDS011;59738;48.324;14.230;2023-04-06T06:06:13;12.40;;;6.15;;
71867;SDS011;59738;48.324;14.230;2023-04-06T06:08:55;16.42;;;6.22;;
71867;SDS011;59738;48.324;14.230;2023-04-06T06:11:24;11.73;;;5.93;;
71867;SDS011;59738;48.324;14.230;2023-04-06T06:13:53;12.85;;;6.20;;
71867;SDS011;59738;48.324;14.230;2023-04-06T06:16:21;17.43;;;7.33;;
71867;SDS011;59738;48.324;14.230;2023-04-06T06:18:49;9.68;;;5.30;;
71867;SDS011;59738;48.324;14.230;2023-04-06T06:21:16;8.13;;;4.80;;
71867;SDS011;59738;48.324;14.230;2023-04-06T06:23:44;6.95;;;4.13;;
71867;SDS011;59738;48.324;14.230;2023-04-06T06:26:16;5.97;;;3.97;;
71867;SDS011;59738;48.324;14.230;2023-04-06T06:28:43;6.37;;;3.50;;
71867;SDS011;59738;48.324;14.230;2023-04-06T06:31:13;7.80;;;4.53;;
71867;SDS011;59738;48.324;14.230;2023-04-06T06:33:43;8.98;;;4.00;;
71867;SDS011;59738;48.324;14.230;2023-04-06T06:36:10;6.95;;;4.35;;
71867;SDS011;59738;48.324;14.230;2023-04-06T06:38:37;9.73;;;4.00;;
71867;SDS011;59738;48.324;14.230;2023-04-06T06:41:05;6.10;;;4.10;;
71867;SDS011;59738;48.324;14.230;2023-04-06T06:43:34;8.20;;;4.78;;
71867;SDS011;59738;48.324;14.230;2023-04-06T06:46:06;6.85;;;4.30;;
71867;SDS011;59738;48.324;14.230;2023-04-06T06:48:33;5.68;;;3.65;;
71867;SDS011;59738;48.324;14.230;2023-04-06T06:51:02;7.63;;;3.92;;
71867;SDS011;59738;48.324;14.230;2023-04-06T06:53:30;11.23;;;4.00;;
71867;SDS011;59738;48.324;14.230;2023-04-06T06:55:57;8.70;;;4.20;;
71867;SDS011;59738;48.324;14.230;2023-04-06T06:58:24;7.18;;;4.22;;
71867;SDS011;59738;48.324;14.230;2023-04-06T07:00:55;6.50;;;3.83;;
71867;SDS011;59738;48.324;14.230;2023-04-06T07:03:22;6.55;;;3.70;;
71867;SDS011;59738;48.324;14.230;2023-04-06T07:05:49;6.80;;;3.83;;
71867;SDS011;59738;48.324;14.230;2023-04-06T07:08:21;7.13;;;3.95;;
71867;SDS011;59738;48.324;14.230;2023-04-06T07:10:48;7.07;;;4.10;;
71867;SDS011;59738;48.324;14.230;2023-04-06T07:13:16;8.18;;;4.30;;
71867;SDS011;59738;48.324;14.230;2023-04-06T07:15:48;6.88;;;4.05;;
71867;SDS011;59738;48.324;14.230;2023-04-06T07:18:15;6.37;;;4.00;;
71867;SDS011;59738;48.324;14.230;2023-04-06T07:20:44;5.65;;;3.50;;
71867;SDS011;59738;48.324;14.230;2023-04-06T07:23:11;7.82;;;4.30;;
71867;SDS011;59738;48.324;14.230;2023-04-06T07:25:40;6.13;;;3.95;;
71867;SDS011;59738;48.324;14.230;2023-04-06T07:28:09;5.60;;;3.67;;
71867;SDS011;59738;48.324;14.230;2023-04-06T07:30:37;9.60;;;3.97;;
71867;SDS011;59738;48.324;14.230;2023-04-06T07:33:05;4.45;;;3.28;;
71867;SDS011;59738;48.324;14.230;2023-04-06T07:35:34;11.93;;;4.10;;
71867;SDS011;59738;48.324;14.230;2023-04-06T07:38:02;7.13;;;4.05;;
71867;SDS011;59738;48.324;14.230;2023-04-06T07:40:31;8.38;;;3.65;;
71867;SDS011;59738;48.324;14.230;2023-04-06T07:43:00;8.57;;;4.60;;
71867;SDS011;59738;48.324;14.230;2023-04-06T07:45:28;7.65;;;4.47;;
71867;SDS011;59738;48.324;14.230;2023-04-06T07:47:56;7.20;;;4.40;;
71867;SDS011;59738;48.324;14.230;2023-04-06T07:50:25;10.20;;;4.35;;
71867;SDS011;59738;48.324;14.230;2023-04-06T07:52:53;8.70;;;4.70;;
71867;SDS011;59738;48.324;14.230;2023-04-06T07:55:20;5.77;;;3.83;;
71867;SDS011;59738;48.324;14.230;2023-04-06T07:57:47;6.65;;;4.15;;
71867;SDS011;59738;48.324;14.230;2023-04-06T08:00:16;5.30;;;4.15;;
71867;SDS011;59738;48.324;14.230;2023-04-06T08:02:43;7.55;;;4.25;;
71867;SDS011;59738;48.324;14.230;2023-04-06T08:05:11;8.80;;;4.38;;
71867;SDS011;59738;48.324;14.230;2023-04-06T08:07:38;11.43;;;4.83;;
71867;SDS011;59738;48.324;14.230;2023-04-06T08:10:05;6.68;;;4.28;;
71867;SDS011;59738;48.324;14.230;2023-04-06T08:12:33;12.45;;;4.60;;
71867;SDS011;59738;48.324;14.230;2023-04-06T08:15:01;6.03;;;3.70;;
71867;SDS011;59738;48.324;14.230;2023-04-06T08:17:31;5.30;;;3.20;;
71867;SDS011;59738;48.324;14.230;2023-04-06T08:19:58;8.07;;;4.27;;
71867;SDS011;59738;48.324;14.230;2023-04-06T08:22:25;8.40;;;4.18;;
71867;SDS011;59738;48.324;14.230;2023-04-06T08:24:52;7.07;;;4.30;;
71867;SDS011;59738;48.324;14.230;2023-04-06T08:27:19;10.07;;;4.03;;
71867;SDS011;59738;48.324;14.230;2023-04-06T08:29:47;6.65;;;4.22;;
71867;SDS011;59738;48.324;14.230;2023-04-06T08:32:14;6.03;;;3.53;;
71867;SDS011;59738;48.324;14.230;2023-04-06T08:34:43;9.23;;;3.55;;
71867;SDS011;59738;48.324;14.230;2023-04-06T08:37:10;5.15;;;3.30;;
71867;SDS011;59738;48.324;14.230;2023-04-06T08:39:37;5.43;;;3.35;;
71867;SDS011;59738;48.324;14.230;2023-04-06T08:42:10;7.38;;;3.72;;
71867;SDS011;59738;48.324;14.230;2023-04-06T08:44:37;6.67;;;3.80;;
71867;SDS011;59738;48.324;14.230;2023-04-06T08:47:06;7.40;;;3.72;;
71867;SDS011;59738;48.324;14.230;2023-04-06T08:49:34;8.20;;;3.88;;
71867;SDS011;59738;48.324;14.230;2023-04-06T08:52:03;7.57;;;4.10;;
71867;SDS011;59738;48.324;14.230;2023-04-06T08:54:31;6.63;;;4.10;;
71867;SDS011;59738;48.324;14.230;2023-04-06T08:56:59;6.03;;;3.73;;
71867;SDS011;59738;48.324;14.230;2023-04-06T08:59:26;7.95;;;3.80;;
71867;SDS011;59738;48.324;14.230;2023-04-06T09:01:54;5.18;;;3.45;;
71867;SDS011;59738;48.324;14.230;2023-04-06T09:04:22;6.90;;;4.00;;
71867;SDS011;59738;48.324;14.230;2023-04-06T09:06:49;5.88;;;3.70;;
71867;SDS011;59738;48.324;14.230;2023-04-06T09:09:18;8.20;;;3.90;;
71867;SDS011;59738;48.324;14.230;2023-04-06T09:11:46;8.65;;;3.20;;
71867;SDS011;59738;48.324;14.230;2023-04-06T09:14:13;9.15;;;3.60;;
71867;SDS011;59738;48.324;14.230;2023-04-06T09:16:41;6.03;;;3.05;;
71867;SDS011;59738;48.324;14.230;2023-04-06T09:19:08;6.57;;;3.40;;
71867;SDS011;59738;48.324;14.230;2023-04-06T09:21:36;13.80;;;3.97;;
71867;SDS011;59738;48.324;14.230;2023-04-06T09:24:04;7.15;;;3.50;;
71867;SDS011;59738;48.324;14.230;2023-04-06T09:26:43;5.55;;;3.30;;
71867;SDS011;59738;48.324;14.230;2023-04-06T09:29:10;5.32;;;2.95;;
71867;SDS011;59738;48.324;14.230;2023-04-06T09:31:48;5.75;;;3.20;;
71867;SDS011;59738;48.324;14.230;2023-04-06T09:34:20;7.33;;;3.03;;
71867;SDS011;59738;48.324;14.230;2023-04-06T09:36:47;5.25;;;3.05;;
71867;SDS011;59738;48.324;14.230;2023-04-06T09:39:15;8.07;;;3.15;;
71867;SDS011;59738;48.324;14.230;2023-04-06T09:41:48;6.75;;;3.03;;
71867;SDS011;59738;48.324;14.230;2023-04-06T09:44:15;7.03;;;3.28;;
71867;SDS011;59738;48.324;14.230;2023-04-06T09:46:43;6.03;;;3.10;;
71867;SDS011;59738;48.324;14.230;2023-04-06T09:49:11;6.13;;;3.22;;
71867;SDS011;59738;48.324;14.230;2023-04-06T09:51:38;6.10;;;3.10;;
71867;SDS011;59738;48.324;14.230;2023-04-06T09:54:07;3.83;;;2.70;;
71867;SDS011;59738;48.324;14.230;2023-04-06T09:56:37;11.93;;;3.47;;
71867;SDS011;59738;48.324;14.230;2023-04-06T09:59:08;6.37;;;3.43;;
71867;SDS011;59738;48.324;14.230;2023-04-06T10:01:36;6.95;;;4.05;;
71867;SDS011;59738;48.324;14.230;2023-04-06T10:04:07;7.43;;;4.03;;
71867;SDS011;59738;48.324;14.230;2023-04-06T10:06:37;11.00;;;3.50;;
71867;SDS011;59738;48.324;14.230;2023-04-06T10:09:05;8.07;;;3.47;;
71867;SDS011;59738;48.324;14.230;2023-04-06T10:11:33;5.13;;;3.20;;
71867;SDS011;59738;48.324;14.230;2023-04-06T10:14:01;7.32;;;3.60;;
71867;SDS011;59738;48.324;14.230;2023-04-06T10:16:29;4.53;;;3.28;;
71867;SDS011;59738;48.324;14.230;2023-04-06T10:18:59;9.70;;;3.72;;
71867;SDS011;59738;48.324;14.230;2023-04-06T10:21:28;6.25;;;3.60;;
71867;SDS011;59738;48.324;14.230;2023-04-06T10:23:57;4.47;;;3.10;;
71867;SDS011;59738;48.324;14.230;2023-04-06T10:26:25;5.72;;;3.28;;
71867;SDS011;59738;48.324;14.230;2023-04-06T10:28:53;5.35;;;3.20;;
71867;SDS011;59738;48.324;14.230;2023-04-06T10:31:23;5.25;;;3.63;;
71867;SDS011;59738;48.324;14.230;2023-04-06T10:33:56;7.38;;;3.03;;
71867;SDS011;59738;48.324;14.230;2023-04-06T10:36:24;4.60;;;3.20;;
71867;SDS011;59738;48.324;14.230;2023-04-06T10:38:56;5.25;;;2.80;;
71867;SDS011;59738;48.324;14.230;2023-04-06T10:41:23;5.22;;;3.63;;
71867;SDS011;59738;48.324;14.230;2023-04-06T10:43:54;7.35;;;3.45;;
71867;SDS011;59738;48.324;14.230;2023-04-06T10:46:24;5.80;;;3.17;;
71867;SDS011;59738;48.324;14.230;2023-04-06T10:48:51;5.73;;;3.57;;
71867;SDS011;59738;48.324;14.230;2023-04-06T10:51:24;5.03;;;3.42;;
71867;SDS011;59738;48.324;14.230;2023-04-06T10:53:52;8.60;;;3.78;;
71867;SDS011;59738;48.324;14.230;2023-04-06T10:56:21;5.78;;;3.60;;
71867;SDS011;59738;48.324;14.230;2023-04-06T10:58:49;6.45;;;3.60;;
71867;SDS011;59738;48.324;14.230;2023-04-06T11:01:17;4.33;;;3.20;;
71867;SDS011;59738;48.324;14.230;2023-04-06T11:03:46;5.57;;;3.50;;
71867;SDS011;59738;48.324;14.230;2023-04-06T11:06:17;5.70;;;3.55;;
71867;SDS011;59738;48.324;14.230;2023-04-06T11:08:46;5.97;;;3.80;;
71867;SDS011;59738;48.324;14.230;2023-04-06T11:11:14;11.18;;;3.30;;
71867;SDS011;59738;48.324;14.230;2023-04-06T11:13:44;6.73;;;4.00;;
71867;SDS011;59738;48.324;14.230;2023-04-06T11:16:13;5.93;;;3.22;;
71867;SDS011;59738;48.324;14.230;2023-04-06T11:18:50;5.57;;;3.42;;
71867;SDS011;59738;48.324;14.230;2023-04-06T11:21:17;6.05;;;4.28;;
71867;SDS011;59738;48.324;14.230;2023-04-06T11:23:46;5.93;;;3.78;;
71867;SDS011;59738;48.324;14.230;2023-04-06T11:26:13;7.97;;;3.27;;
71867;SDS011;59738;48.324;14.230;2023-04-06T11:28:41;6.72;;;3.92;;
71867;SDS011;59738;48.324;14.230;2023-04-06T11:31:08;5.68;;;3.90;;
71867;SDS011;59738;48.324;14.230;2023-04-06T11:33:36;5.75;;;3.67;;
71867;SDS011;59738;48.324;14.230;2023-04-06T11:36:04;7.20;;;4.00;;
71867;SDS011;59738;48.324;14.230;2023-04-06T11:38:33;8.43;;;3.80;;
71867;SDS011;59738;48.324;14.230;2023-04-06T11:41:02;6.50;;;3.90;;
71867;SDS011;59738;48.324;14.230;2023-04-06T11:43:29;5.40;;;3.70;;
71867;SDS011;59738;48.324;14.230;2023-04-06T11:46:00;5.25;;;3.33;;
71867;SDS011;59738;48.324;14.230;2023-04-06T11:48:28;5.50;;;3.55;;
71867;SDS011;59738;48.324;14.230;2023-04-06T11:50:56;5.17;;;3.63;;
71867;SDS011;59738;48.324;14.230;2023-04-06T11:53:24;5.13;;;3.25;;
71867;SDS011;59738;48.324;14.230;2023-04-06T11:55:51;8.50;;;3.75;;
71867;SDS011;59738;48.324;14.230;2023-04-06T11:58:20;5.03;;;3.78;;
71867;SDS011;59738;48.324;14.230;2023-04-06T12:00:47;6.85;;;3.53;;
71867;SDS011;59738;48.324;14.230;2023-04-06T12:03:14;6.87;;;4.10;;
71867;SDS011;59738;48.324;14.230;2023-04-06T12:05:41;9.00;;;3.70;;
71867;SDS011;59738;48.324;14.230;2023-04-06T12:08:09;5.90;;;3.80;;
71867;SDS011;59738;48.324;14.230;2023-04-06T12:10:36;7.05;;;3.30;;
71867;SDS011;59738;48.324;14.230;2023-04-06T12:13:03;5.57;;;3.65;;
71867;SDS011;59738;48.324;14.230;2023-04-06T12:15:32;10.20;;;3.80;;
71867;SDS011;59738;48.324;14.230;2023-04-06T12:17:59;11.15;;;3.85;;
71867;SDS011;59738;48.324;14.230;2023-04-06T12:20:26;7.20;;;3.83;;
71867;SDS011;59738;48.324;14.230;2023-04-06T12:22:54;5.18;;;3.38;;
71867;SDS011;59738;48.324;14.230;2023-04-06T12:25:21;5.80;;;3.40;;
71867;SDS011;59738;48.324;14.230;2023-04-06T12:27:49;6.90;;;3.67;;
71867;SDS011;59738;48.324;14.230;2023-04-06T12:30:16;8.82;;;4.35;;
71867;SDS011;59738;48.324;14.230;2023-04-06T12:32:44;6.55;;;4.10;;
71867;SDS011;59738;48.324;14.230;2023-04-06T12:35:12;4.13;;;3.33;;
71867;SDS011;59738;48.324;14.230;2023-04-06T12:37:41;6.80;;;3.60;;
71867;SDS011;59738;48.324;14.230;2023-04-06T12:40:09;6.27;;;3.80;;
71867;SDS011;59738;48.324;14.230;2023-04-06T12:42:38;6.10;;;3.50;;
71867;SDS011;59738;48.324;14.230;2023-04-06T12:45:06;5.45;;;3.85;;
71867;SDS011;59738;48.324;14.230;2023-04-06T12:47:34;5.55;;;3.40;;
71867;SDS011;59738;48.324;14.230;2023-04-06T12:50:03;10.77;;;3.70;;
71867;SDS011;59738;48.324;14.230;2023-04-06T12:52:31;4.93;;;3.60;;
71867;SDS011;59738;48.324;14.230;2023-04-06T12:55:01;5.65;;;3.58;;
71867;SDS011;59738;48.324;14.230;2023-04-06T12:57:28;8.60;;;3.90;;
71867;SDS011;59738;48.324;14.230;2023-04-06T12:59:56;5.07;;;3.20;;
71867;SDS011;59738;48.324;14.230;2023-04-06T13:02:24;7.40;;;4.80;;
71867;SDS011;59738;48.324;14.230;2023-04-06T13:04:54;6.37;;;3.23;;
71867;SDS011;59738;48.324;14.230;2023-04-06T13:07:22;6.22;;;3.60;;
71867;SDS011;59738;48.324;14.230;2023-04-06T13:09:50;5.63;;;3.80;;
71867;SDS011;59738;48.324;14.230;2023-04-06T13:12:18;6.88;;;3.70;;
71867;SDS011;59738;48.324;14.230;2023-04-06T13:14:45;7.15;;;4.20;;
71867;SDS011;59738;48.324;14.230;2023-04-06T13:17:17;3.77;;;2.90;;
71867;SDS011;59738;48.324;14.230;2023-04-06T13:19:44;5.45;;;3.33;;
71867;SDS011;59738;48.324;14.230;2023-04-06T13:22:11;6.88;;;3.97;;
71867;SDS011;59738;48.324;14.230;2023-04-06T13:24:40;5.97;;;3.13;;
71867;SDS011;59738;48.324;14.230;2023-04-06T13:27:07;3.97;;;3.17;;
71867;SDS011;59738;48.324;14.230;2023-04-06T13:29:35;5.13;;;3.13;;
71867;SDS011;59738;48.324;14.230;2023-04-06T13:32:03;4.60;;;2.65;;
71867;SDS011;59738;48.324;14.230;2023-04-06T13:34:33;6.22;;;3.50;;
71867;SDS011;59738;48.324;14.230;2023-04-06T13:37:01;5.00;;;3.22;;
71867;SDS011;59738;48.324;14.230;2023-04-06T13:39:28;7.13;;;3.45;;
71867;SDS011;59738;48.324;14.230;2023-04-06T13:41:57;6.20;;;3.17;;
71867;SDS011;59738;48.324;14.230;2023-04-06T13:44:25;4.50;;;3.10;;
71867;SDS011;59738;48.324;14.230;2023-04-06T13:46:52;4.35;;;2.80;;
71867;SDS011;59738;48.324;14.230;2023-04-06T13:49:19;5.10;;;2.67;;
71867;SDS011;59738;48.324;14.230;2023-04-06T13:51:46;4.55;;;3.25;;
71867;SDS011;59738;48.324;14.230;2023-04-06T13:54:14;5.90;;;3.33;;
71867;SDS011;59738;48.324;14.230;2023-04-06T13:56:41;4.57;;;3.20;;
71867;SDS011;59738;48.324;14.230;2023-04-06T13:59:09;7.63;;;3.85;;
71867;SDS011;59738;48.324;14.230;2023-04-06T14:01:36;4.85;;;3.00;;
71867;SDS011;59738;48.324;14.230;2023-04-06T14:04:04;7.20;;;3.35;;
71867;SDS011;59738;48.324;14.230;2023-04-06T14:06:31;4.87;;;3.27;;
71867;SDS011;59738;48.324;14.230;2023-04-06T14:08:58;4.72;;;3.00;;
71867;SDS011;59738;48.324;14.230;2023-04-06T14:11:25;5.68;;;3.30;;
71867;SDS011;59738;48.324;14.230;2023-04-06T14:13:52;5.80;;;3.10;;
71867;SDS011;59738;48.324;14.230;2023-04-06T14:16:22;5.38;;;3.30;;
71867;SDS011;59738;48.324;14.230;2023-04-06T14:18:50;5.13;;;3.00;;
71867;SDS011;59738;48.324;14.230;2023-04-06T14:21:17;4.68;;;3.30;;
71867;SDS011;59738;48.324;14.230;2023-04-06T14:23:45;5.05;;;3.33;;
71867;SDS011;59738;48.324;14.230;2023-04-06T14:26:12;4.75;;;3.03;;
71867;SDS011;59738;48.324;14.230;2023-04-06T14:28:39;9.90;;;3.70;;
71867;SDS011;59738;48.324;14.230;2023-04-06T14:31:09;3.40;;;3.00;;
71867;SDS011;59738;48.324;14.230;2023-04-06T14:33:38;4.50;;;2.95;;
71867;SDS011;59738;48.324;14.230;2023-04-06T14:36:06;5.28;;;3.35;;
71867;SDS011;59738;48.324;14.230;2023-04-06T14:38:33;3.22;;;2.53;;
71867;SDS011;59738;48.324;14.230;2023-04-06T14:41:00;4.63;;;3.42;;
71867;SDS011;59738;48.324;14.230;2023-04-06T14:43:27;4.27;;;2.90;;
71867;SDS011;59738;48.324;14.230;2023-04-06T14:45:59;4.50;;;3.40;;